sensor_id;sensor_type;location;lat;lon;timestamp;pressure;altitude;pressure_sealevel;temperature;humidity
45327;BME280;31062;49.678;24.560;2023-03-14T00:02:10;97380.44;;;5.68;62.73
45327;BME280;31062;49.678;24.560;2023-03-14T00:04:55;97462.38;;;6.36;62.72
45327;BME280;31062;49.678;24.560;2023-03-14T00:07:41;97499.84;;;6.32;62.71
45327;BME280;31062;49.678;24.560;2023-03-14T00:10:27;97288.09;;;5.23;63.09
45327;BME280;31062;49.678;24.560;2023-03-14T00:13:12;97332.59;;;5.46;63.04
45327;BME280;31062;49.678;24.560;2023-03-14T00:16:09;97287.50;;;5.24;63.15
45327;BME280;31062;49.678;24.560;2023-03-14T00:18:55;97365.72;;;5.73;63.13
45327;BME280;31062;49.678;24.560;2023-03-14T00:21:40;97445.63;;;6.25;63.21
45327;BME280;31062;49.678;24.560;2023-03-14T00:24:26;97246.41;;;4.92;63.19
45327;BME280;31062;49.678;24.560;2023-03-14T00:27:12;97432.47;;;6.15;63.28
45327;BME280;31062;49.678;24.560;2023-03-14T00:29:58;97253.19;;;4.91;63.54
45327;BME280;31062;49.678;24.560;2023-03-14T00:32:43;97437.25;;;6.15;63.87
45327;BME280;31062;49.678;24.560;2023-03-14T00:35:29;97272.59;;;4.93;63.49
45327;BME280;31062;49.678;24.560;2023-03-14T00:38:14;97285.69;;;5.02;63.77
45327;BME280;31062;49.678;24.560;2023-03-14T00:41:06;97295.56;;;5.05;63.73
45327;BME280;31062;49.678;24.560;2023-03-14T00:43:52;97417.47;;;5.67;64.03
45327;BME280;31062;49.678;24.560;2023-03-14T00:46:38;97262.38;;;4.86;63.99
45327;BME280;31062;49.678;24.560;2023-03-14T00:49:25;97413.84;;;5.89;63.66
45327;BME280;31062;49.678;24.560;2023-03-14T00:52:10;97417.25;;;5.97;63.72
45327;BME280;31062;49.678;24.560;2023-03-14T00:54:56;97431.00;;;5.97;63.87
45327;BME280;31062;49.678;24.560;2023-03-14T00:57:42;97380.13;;;5.64;64.29
45327;BME280;31062;49.678;24.560;2023-03-14T01:00:27;97239.84;;;4.63;63.91
45327;BME280;31062;49.678;24.560;2023-03-14T01:03:14;97261.88;;;4.80;64.29
45327;BME280;31062;49.678;24.560;2023-03-14T01:06:16;97258.78;;;4.76;64.52
45327;BME280;31062;49.678;24.560;2023-03-14T01:09:02;97384.81;;;5.71;64.53
45327;BME280;31062;49.678;24.560;2023-03-14T01:11:48;97406.66;;;5.69;64.80
45327;BME280;31062;49.678;24.560;2023-03-14T01:14:35;97389.97;;;5.67;64.86
45327;BME280;31062;49.678;24.560;2023-03-14T01:17:22;97395.47;;;5.67;65.22
45327;BME280;31062;49.678;24.560;2023-03-14T01:20:10;97395.56;;;5.59;65.41
45327;BME280;31062;49.678;24.560;2023-03-14T01:22:56;97400.31;;;5.59;65.23
45327;BME280;31062;49.678;24.560;2023-03-14T01:25:42;97348.16;;;5.26;65.07
45327;BME280;31062;49.678;24.560;2023-03-14T01:28:27;97377.66;;;5.51;65.34
45327;BME280;31062;49.678;24.560;2023-03-14T01:31:13;97272.00;;;4.70;65.82
45327;BME280;31062;49.678;24.560;2023-03-14T01:33:58;97361.94;;;5.19;65.36
45327;BME280;31062;49.678;24.560;2023-03-14T01:36:44;97220.28;;;4.34;65.64
45327;BME280;31062;49.678;24.560;2023-03-14T01:39:30;97362.41;;;5.32;65.59
45327;BME280;31062;49.678;24.560;2023-03-14T01:42:15;97371.53;;;5.35;65.64
45327;BME280;31062;49.678;24.560;2023-03-14T01:45:02;97211.91;;;4.24;65.94
45327;BME280;31062;49.678;24.560;2023-03-14T01:47:47;97374.13;;;5.33;65.98
45327;BME280;31062;49.678;24.560;2023-03-14T01:50:33;97355.88;;;5.20;66.02
45327;BME280;31062;49.678;24.560;2023-03-14T01:53:18;97373.50;;;5.17;65.69
45327;BME280;31062;49.678;24.560;2023-03-14T01:56:08;97278.25;;;4.70;65.62
45327;BME280;31062;49.678;24.560;2023-03-14T01:58:56;97182.59;;;4.02;65.32
45327;BME280;31062;49.678;24.560;2023-03-14T02:01:43;97191.16;;;4.06;65.33
45327;BME280;31062;49.678;24.560;2023-03-14T02:04:33;97357.84;;;5.27;65.48
45327;BME280;31062;49.678;24.560;2023-03-14T02:07:27;97213.69;;;4.29;65.39
45327;BME280;31062;49.678;24.560;2023-03-14T02:10:32;97372.38;;;5.20;65.62
45327;BME280;31062;49.678;24.560;2023-03-14T02:13:21;97341.31;;;5.10;65.69
45327;BME280;31062;49.678;24.560;2023-03-14T02:16:30;97126.00;;;3.49;65.62
45327;BME280;31062;49.678;24.560;2023-03-14T02:22:42;97241.56;;;4.18;65.89
45327;BME280;31062;49.678;24.560;2023-03-14T02:25:45;97374.03;;;4.91;66.41
45327;BME280;31062;49.678;24.560;2023-03-14T02:28:33;97151.88;;;3.63;65.91
45327;BME280;31062;49.678;24.560;2023-03-14T02:31:21;97168.44;;;3.81;65.76
45327;BME280;31062;49.678;24.560;2023-03-14T02:34:07;97140.16;;;3.70;65.81
45327;BME280;31062;49.678;24.560;2023-03-14T02:36:53;97312.81;;;4.98;65.93
45327;BME280;31062;49.678;24.560;2023-03-14T02:39:44;97129.19;;;3.70;65.51
45327;BME280;31062;49.678;24.560;2023-03-14T02:42:32;97241.25;;;4.46;66.10
45327;BME280;31062;49.678;24.560;2023-03-14T02:48:12;97135.81;;;3.60;66.09
45327;BME280;31062;49.678;24.560;2023-03-14T02:51:00;97315.47;;;4.88;66.38
45327;BME280;31062;49.678;24.560;2023-03-14T02:53:47;97123.22;;;3.57;66.13
45327;BME280;31062;49.678;24.560;2023-03-14T02:56:33;97117.97;;;3.51;66.15
45327;BME280;31062;49.678;24.560;2023-03-14T02:59:19;97294.63;;;4.78;66.43
45327;BME280;31062;49.678;24.560;2023-03-14T03:02:12;97102.28;;;3.44;66.31
45327;BME280;31062;49.678;24.560;2023-03-14T03:04:58;97115.91;;;3.59;66.17
45327;BME280;31062;49.678;24.560;2023-03-14T03:07:43;97291.91;;;4.78;66.26
45327;BME280;31062;49.678;24.560;2023-03-14T03:10:30;97303.69;;;4.96;65.90
45327;BME280;31062;49.678;24.560;2023-03-14T03:13:16;97276.00;;;4.76;66.38
45327;BME280;31062;49.678;24.560;2023-03-14T03:16:04;97228.53;;;4.59;65.90
45327;BME280;31062;49.678;24.560;2023-03-14T03:18:52;97277.66;;;4.97;65.72
45327;BME280;31062;49.678;24.560;2023-03-14T03:21:38;97280.91;;;5.03;65.49
45327;BME280;31062;49.678;24.560;2023-03-14T03:24:25;97242.66;;;4.80;65.51
45327;BME280;31062;49.678;24.560;2023-03-14T03:27:12;97227.84;;;4.75;65.76
45327;BME280;31062;49.678;24.560;2023-03-14T03:29:58;97254.66;;;4.92;65.52
45327;BME280;31062;49.678;24.560;2023-03-14T03:32:44;97088.94;;;3.81;65.11
45327;BME280;31062;49.678;24.560;2023-03-14T03:35:30;97259.72;;;4.96;65.19
45327;BME280;31062;49.678;24.560;2023-03-14T03:38:16;97093.13;;;3.82;65.23
45327;BME280;31062;49.678;24.560;2023-03-14T03:41:05;97112.53;;;3.76;65.11
45327;BME280;31062;49.678;24.560;2023-03-14T03:43:51;97076.00;;;3.74;64.71
45327;BME280;31062;49.678;24.560;2023-03-14T03:46:37;97067.78;;;3.74;64.68
45327;BME280;31062;49.678;24.560;2023-03-14T03:49:23;97261.97;;;5.14;64.56
45327;BME280;31062;49.678;24.560;2023-03-14T03:52:08;97213.06;;;4.71;64.48
45327;BME280;31062;49.678;24.560;2023-03-14T03:54:54;97228.50;;;5.08;64.33
45327;BME280;31062;49.678;24.560;2023-03-14T03:57:39;97080.66;;;4.13;63.92
45327;BME280;31062;49.678;24.560;2023-03-14T04:00:25;97251.78;;;5.24;64.10
45327;BME280;31062;49.678;24.560;2023-03-14T04:03:10;97045.66;;;4.04;63.72
45327;BME280;31062;49.678;24.560;2023-03-14T04:06:03;97051.69;;;4.27;63.41
45327;BME280;31062;49.678;24.560;2023-03-14T04:08:51;97011.09;;;4.01;63.15
45327;BME280;31062;49.678;24.560;2023-03-14T04:11:56;97144.31;;;5.03;62.99
45327;BME280;31062;49.678;24.560;2023-03-14T04:14:52;97192.81;;;5.43;63.06
45327;BME280;31062;49.678;24.560;2023-03-14T04:17:40;97124.75;;;4.82;62.56
45327;BME280;31062;49.678;24.560;2023-03-14T04:20:26;97044.47;;;4.57;62.67
45327;BME280;31062;49.678;24.560;2023-03-14T04:23:12;97034.44;;;4.51;62.61
45327;BME280;31062;49.678;24.560;2023-03-14T04:25:58;97180.84;;;5.65;62.42
45327;BME280;31062;49.678;24.560;2023-03-14T04:28:47;97141.00;;;5.39;62.65
45327;BME280;31062;49.678;24.560;2023-03-14T04:31:33;96989.56;;;4.39;62.06
45327;BME280;31062;49.678;24.560;2023-03-14T04:34:18;96994.41;;;4.48;61.96
45327;BME280;31062;49.678;24.560;2023-03-14T04:37:09;97177.75;;;5.61;61.90
45327;BME280;31062;49.678;24.560;2023-03-14T04:39:59;97173.22;;;5.73;62.08
45327;BME280;31062;49.678;24.560;2023-03-14T04:42:47;97086.13;;;5.14;62.26
45327;BME280;31062;49.678;24.560;2023-03-14T04:45:33;97032.69;;;4.81;62.56
45327;BME280;31062;49.678;24.560;2023-03-14T04:48:22;96966.47;;;4.42;62.46
45327;BME280;31062;49.678;24.560;2023-03-14T04:51:08;97137.53;;;5.39;62.38
45327;BME280;31062;49.678;24.560;2023-03-14T04:53:54;96977.78;;;4.46;62.32
45327;BME280;31062;49.678;24.560;2023-03-14T04:56:40;97127.00;;;5.45;62.34
45327;BME280;31062;49.678;24.560;2023-03-14T04:59:26;97076.13;;;5.09;62.30
45327;BME280;31062;49.678;24.560;2023-03-14T05:02:15;97162.66;;;5.69;62.64
45327;BME280;31062;49.678;24.560;2023-03-14T05:05:20;97097.28;;;5.16;62.29
45327;BME280;31062;49.678;24.560;2023-03-14T05:08:28;97173.91;;;5.64;62.77
45327;BME280;31062;49.678;24.560;2023-03-14T05:11:29;96938.03;;;4.13;62.65
45327;BME280;31062;49.678;24.560;2023-03-14T05:14:39;97165.56;;;5.71;62.69
45327;BME280;31062;49.678;24.560;2023-03-14T05:17:51;96971.56;;;4.46;62.86
45327;BME280;31062;49.678;24.560;2023-03-14T05:20:52;97100.97;;;5.46;62.95
45327;BME280;31062;49.678;24.560;2023-03-14T05:23:57;97019.91;;;4.93;62.65
45327;BME280;31062;49.678;24.560;2023-03-14T05:26:56;97123.59;;;5.71;62.64
45327;BME280;31062;49.678;24.560;2023-03-14T05:30:11;97020.63;;;5.11;62.42
45327;BME280;31062;49.678;24.560;2023-03-14T05:33:19;96954.69;;;4.67;62.96
45327;BME280;31062;49.678;24.560;2023-03-14T05:36:27;97099.66;;;5.64;62.96
45327;BME280;31062;49.678;24.560;2023-03-14T05:39:23;97067.31;;;5.55;62.41
45327;BME280;31062;49.678;24.560;2023-03-14T05:42:28;96924.66;;;4.69;62.34
45327;BME280;31062;49.678;24.560;2023-03-14T05:45:32;96971.09;;;5.01;62.92
45327;BME280;31062;49.678;24.560;2023-03-14T05:48:22;97009.91;;;5.32;62.59
45327;BME280;31062;49.678;24.560;2023-03-14T05:51:19;97076.94;;;5.90;62.63
45327;BME280;31062;49.678;24.560;2023-03-14T05:54:18;97041.22;;;5.73;62.13
45327;BME280;31062;49.678;24.560;2023-03-14T05:57:30;97064.38;;;5.97;62.40
45327;BME280;31062;49.678;24.560;2023-03-14T06:00:31;96953.03;;;5.25;62.84
45327;BME280;31062;49.678;24.560;2023-03-14T06:03:34;96960.50;;;5.42;62.24
45327;BME280;31062;49.678;24.560;2023-03-14T06:06:23;96990.81;;;5.88;62.02
45327;BME280;31062;49.678;24.560;2023-03-14T06:09:08;96929.88;;;5.55;61.15
45327;BME280;31062;49.678;24.560;2023-03-14T06:11:57;97035.44;;;6.42;60.56
45327;BME280;31062;49.678;24.560;2023-03-14T06:14:43;97056.22;;;7.01;59.83
45327;BME280;31062;49.678;24.560;2023-03-14T06:17:29;97007.78;;;6.88;59.54
45327;BME280;31062;49.678;24.560;2023-03-14T06:20:21;96956.03;;;6.86;58.73
45327;BME280;31062;49.678;24.560;2023-03-14T06:23:08;96973.50;;;7.29;57.78
45327;BME280;31062;49.678;24.560;2023-03-14T06:25:54;97033.34;;;8.08;56.68
45327;BME280;31062;49.678;24.560;2023-03-14T06:28:41;97073.78;;;8.65;55.45
45327;BME280;31062;49.678;24.560;2023-03-14T06:31:27;96942.13;;;8.06;55.07
45327;BME280;31062;49.678;24.560;2023-03-14T06:34:18;97043.75;;;9.14;52.92
45327;BME280;31062;49.678;24.560;2023-03-14T06:37:04;97025.00;;;9.12;52.50
45327;BME280;31062;49.678;24.560;2023-03-14T06:39:50;97065.03;;;9.44;52.73
45327;BME280;31062;49.678;24.560;2023-03-14T06:42:51;96941.16;;;8.65;52.75
45327;BME280;31062;49.678;24.560;2023-03-14T06:45:40;96981.34;;;8.78;52.62
45327;BME280;31062;49.678;24.560;2023-03-14T06:48:26;96996.41;;;8.86;53.48
45327;BME280;31062;49.678;24.560;2023-03-14T06:51:12;97033.56;;;8.95;53.64
45327;BME280;31062;49.678;24.560;2023-03-14T06:53:58;97035.16;;;8.77;53.53
45327;BME280;31062;49.678;24.560;2023-03-14T06:56:46;96847.88;;;7.57;54.33
45327;BME280;31062;49.678;24.560;2023-03-14T06:59:32;97050.81;;;8.84;53.83
45327;BME280;31062;49.678;24.560;2023-03-14T07:02:17;96948.28;;;8.47;54.09
45327;BME280;31062;49.678;24.560;2023-03-14T07:05:06;97033.94;;;9.22;53.01
45327;BME280;31062;49.678;24.560;2023-03-14T07:07:52;96875.75;;;8.46;52.94
45327;BME280;31062;49.678;24.560;2023-03-14T07:10:38;96894.13;;;8.75;52.16
45327;BME280;31062;49.678;24.560;2023-03-14T07:13:25;96995.78;;;9.54;51.94
45327;BME280;31062;49.678;24.560;2023-03-14T07:16:17;97029.06;;;10.00;51.87
45327;BME280;31062;49.678;24.560;2023-03-14T07:19:02;97011.94;;;9.80;51.94
45327;BME280;31062;49.678;24.560;2023-03-14T07:21:49;96923.00;;;9.39;51.69
45327;BME280;31062;49.678;24.560;2023-03-14T07:24:40;97033.19;;;10.22;51.56
45327;BME280;31062;49.678;24.560;2023-03-14T07:27:25;97023.78;;;10.28;51.76
45327;BME280;31062;49.678;24.560;2023-03-14T07:30:11;97021.50;;;10.24;52.11
45327;BME280;31062;49.678;24.560;2023-03-14T07:32:57;96824.53;;;9.11;51.44
45327;BME280;31062;49.678;24.560;2023-03-14T07:35:43;96849.53;;;9.36;51.16
45327;BME280;31062;49.678;24.560;2023-03-14T07:38:29;96999.41;;;10.49;51.28
45327;BME280;31062;49.678;24.560;2023-03-14T07:41:34;96937.56;;;10.10;50.98
45327;BME280;31062;49.678;24.560;2023-03-14T07:44:46;96984.47;;;10.66;51.11
45327;BME280;31062;49.678;24.560;2023-03-14T07:47:32;97009.47;;;10.80;50.63
45327;BME280;31062;49.678;24.560;2023-03-14T07:50:17;97005.56;;;10.96;49.93
45327;BME280;31062;49.678;24.560;2023-03-14T07:53:04;96993.25;;;10.99;50.46
45327;BME280;31062;49.678;24.560;2023-03-14T07:55:51;96964.53;;;10.81;50.24
45327;BME280;31062;49.678;24.560;2023-03-14T07:58:37;96878.00;;;10.46;50.38
45327;BME280;31062;49.678;24.560;2023-03-14T08:01:22;96859.69;;;10.52;49.96
45327;BME280;31062;49.678;24.560;2023-03-14T08:04:08;96974.94;;;11.45;49.26
45327;BME280;31062;49.678;24.560;2023-03-14T08:06:55;96820.94;;;10.41;49.69
45327;BME280;31062;49.678;24.560;2023-03-14T08:09:40;96900.84;;;11.09;49.55
45327;BME280;31062;49.678;24.560;2023-03-14T08:12:26;96898.47;;;11.03;49.81
45327;BME280;31062;49.678;24.560;2023-03-14T08:15:12;96788.38;;;10.53;49.89
45327;BME280;31062;49.678;24.560;2023-03-14T08:17:58;96947.91;;;11.84;49.95
45327;BME280;31062;49.678;24.560;2023-03-14T08:20:45;96986.41;;;12.31;50.37
45327;BME280;31062;49.678;24.560;2023-03-14T08:23:31;96978.75;;;12.45;49.77
45327;BME280;31062;49.678;24.560;2023-03-14T08:26:16;96843.59;;;11.68;49.79
45327;BME280;31062;49.678;24.560;2023-03-14T08:29:03;96910.03;;;12.32;47.87
45327;BME280;31062;49.678;24.560;2023-03-14T08:31:50;96907.56;;;12.38;48.27
45327;BME280;31062;49.678;24.560;2023-03-14T08:34:35;96923.66;;;12.69;47.21
45327;BME280;31062;49.678;24.560;2023-03-14T08:37:20;96795.25;;;12.14;46.35
45327;BME280;31062;49.678;24.560;2023-03-14T08:40:11;96930.28;;;13.21;45.23
45327;BME280;31062;49.678;24.560;2023-03-14T08:42:57;96940.81;;;13.38;45.02
45327;BME280;31062;49.678;24.560;2023-03-14T08:45:42;96803.81;;;12.63;44.35
45327;BME280;31062;49.678;24.560;2023-03-14T08:48:28;96926.66;;;13.63;43.64
45327;BME280;31062;49.678;24.560;2023-03-14T08:51:14;96931.94;;;13.73;43.95
45327;BME280;31062;49.678;24.560;2023-03-14T08:54:00;96766.88;;;12.60;43.68
45327;BME280;31062;49.678;24.560;2023-03-14T08:56:45;96916.69;;;13.74;43.72
45327;BME280;31062;49.678;24.560;2023-03-14T08:59:31;96917.72;;;13.82;44.54
45327;BME280;31062;49.678;24.560;2023-03-14T09:02:17;96883.69;;;13.84;44.11
45327;BME280;31062;49.678;24.560;2023-03-14T09:05:03;96868.00;;;13.75;43.88
45327;BME280;31062;49.678;24.560;2023-03-14T09:07:48;96854.13;;;13.77;44.60
45327;BME280;31062;49.678;24.560;2023-03-14T09:10:34;96895.03;;;14.21;44.79
45327;BME280;31062;49.678;24.560;2023-03-14T09:13:19;96734.31;;;13.10;43.62
45327;BME280;31062;49.678;24.560;2023-03-14T09:16:06;96921.63;;;14.24;43.40
45327;BME280;31062;49.678;24.560;2023-03-14T09:18:51;96911.75;;;14.21;43.32
45327;BME280;31062;49.678;24.560;2023-03-14T09:21:42;96914.13;;;14.11;43.08
45327;BME280;31062;49.678;24.560;2023-03-14T09:24:28;96753.25;;;12.98;43.15
45327;BME280;31062;49.678;24.560;2023-03-14T09:27:14;96864.50;;;13.43;43.92
45327;BME280;31062;49.678;24.560;2023-03-14T09:29:59;96876.06;;;13.69;44.36
45327;BME280;31062;49.678;24.560;2023-03-14T09:32:45;96766.53;;;12.84;44.68
45327;BME280;31062;49.678;24.560;2023-03-14T09:35:33;96909.66;;;13.73;45.37
45327;BME280;31062;49.678;24.560;2023-03-14T09:38:19;96910.03;;;13.81;46.31
45327;BME280;31062;49.678;24.560;2023-03-14T09:41:21;96908.84;;;13.86;46.81
45327;BME280;31062;49.678;24.560;2023-03-14T09:44:14;96921.50;;;13.89;47.17
45327;BME280;31062;49.678;24.560;2023-03-14T09:47:06;96825.00;;;13.46;47.65
45327;BME280;31062;49.678;24.560;2023-03-14T09:49:53;96897.41;;;13.96;47.94
45327;BME280;31062;49.678;24.560;2023-03-14T09:52:39;96791.59;;;13.31;47.55
45327;BME280;31062;49.678;24.560;2023-03-14T09:55:27;96928.47;;;14.21;47.24
45327;BME280;31062;49.678;24.560;2023-03-14T09:58:21;96906.69;;;14.34;46.93
45327;BME280;31062;49.678;24.560;2023-03-14T10:01:11;96785.91;;;13.60;46.18
45327;BME280;31062;49.678;24.560;2023-03-14T10:04:04;96810.09;;;13.89;46.73
45327;BME280;31062;49.678;24.560;2023-03-14T10:06:52;96869.44;;;14.43;46.02
45327;BME280;31062;49.678;24.560;2023-03-14T10:09:37;96894.50;;;14.76;44.43
45327;BME280;31062;49.678;24.560;2023-03-14T10:12:35;96784.75;;;14.16;43.28
45327;BME280;31062;49.678;24.560;2023-03-14T10:15:30;96899.03;;;15.03;43.02
45327;BME280;31062;49.678;24.560;2023-03-14T10:18:16;96867.09;;;14.88;42.42
45327;BME280;31062;49.678;24.560;2023-03-14T10:21:25;96755.28;;;14.11;42.36
45327;BME280;31062;49.678;24.560;2023-03-14T10:24:30;96874.56;;;15.01;43.08
45327;BME280;31062;49.678;24.560;2023-03-14T10:27:31;96876.00;;;15.02;42.33
45327;BME280;31062;49.678;24.560;2023-03-14T10:36:15;96783.09;;;14.45;42.36
45327;BME280;31062;49.678;24.560;2023-03-14T10:39:58;96910.88;;;15.39;42.66
45327;BME280;31062;49.678;24.560;2023-03-14T10:42:30;96895.69;;;15.44;42.23
45327;BME280;31062;49.678;24.560;2023-03-14T10:45:33;96910.47;;;15.46;41.58
45327;BME280;31062;49.678;24.560;2023-03-14T10:48:34;96857.44;;;15.29;40.60
45327;BME280;31062;49.678;24.560;2023-03-14T10:51:30;96577.16;;;13.11;40.92
45327;BME280;31062;49.678;24.560;2023-03-14T10:54:21;96751.22;;;14.50;40.27
45327;BME280;31062;49.678;24.560;2023-03-14T10:57:11;96877.44;;;15.41;41.01
45327;BME280;31062;49.678;24.560;2023-03-14T10:59:57;96856.88;;;15.32;40.50
45327;BME280;31062;49.678;24.560;2023-03-14T11:05:57;96859.47;;;15.46;41.11
45327;BME280;31062;49.678;24.560;2023-03-14T11:08:57;96703.28;;;14.53;40.52
45327;BME280;31062;49.678;24.560;2023-03-14T11:11:49;96791.28;;;15.13;40.15
45327;BME280;31062;49.678;24.560;2023-03-14T11:14:39;96818.38;;;15.48;39.88
45327;BME280;31062;49.678;24.560;2023-03-14T11:20:35;96823.13;;;15.83;40.82
45327;BME280;31062;49.678;24.560;2023-03-14T11:26:37;96813.50;;;16.08;38.36
45327;BME280;31062;49.678;24.560;2023-03-14T11:29:39;96825.78;;;16.21;39.27
45327;BME280;31062;49.678;24.560;2023-03-14T11:32:39;96669.34;;;15.18;39.09
45327;BME280;31062;49.678;24.560;2023-03-14T11:35:33;96816.75;;;16.22;39.33
45327;BME280;31062;49.678;24.560;2023-03-14T11:41:32;96817.47;;;16.23;39.42
45327;BME280;31062;49.678;24.560;2023-03-14T11:44:33;96818.69;;;16.18;39.71
45327;BME280;31062;49.678;24.560;2023-03-14T11:47:26;96828.63;;;16.23;39.93
45327;BME280;31062;49.678;24.560;2023-03-14T11:50:24;96825.00;;;16.18;39.25
45327;BME280;31062;49.678;24.560;2023-03-14T11:56:31;96752.91;;;15.73;39.06
45327;BME280;31062;49.678;24.560;2023-03-14T12:02:21;96829.34;;;16.23;38.04
45327;BME280;31062;49.678;24.560;2023-03-14T12:08:46;96813.38;;;16.26;39.28
45327;BME280;31062;49.678;24.560;2023-03-14T12:14:33;96794.81;;;16.15;39.62
45327;BME280;31062;49.678;24.560;2023-03-14T12:17:40;96813.31;;;16.24;39.55
45327;BME280;31062;49.678;24.560;2023-03-14T12:20:28;96830.88;;;16.26;40.03
45327;BME280;31062;49.678;24.560;2023-03-14T12:23:14;96811.88;;;16.23;38.61
45327;BME280;31062;49.678;24.560;2023-03-14T12:26:50;96807.25;;;16.31;38.91
45327;BME280;31062;49.678;24.560;2023-03-14T12:29:16;96722.19;;;15.73;39.18
45327;BME280;31062;49.678;24.560;2023-03-14T12:32:23;96743.97;;;15.77;39.99
45327;BME280;31062;49.678;24.560;2023-03-14T12:35:37;96798.28;;;16.35;39.22
45327;BME280;31062;49.678;24.560;2023-03-14T12:41:48;96800.03;;;16.46;38.65
45327;BME280;31062;49.678;24.560;2023-03-14T12:44:47;96798.47;;;16.41;39.41
45327;BME280;31062;49.678;24.560;2023-03-14T12:51:00;96793.91;;;16.52;38.88
45327;BME280;31062;49.678;24.560;2023-03-14T12:59:59;96797.81;;;16.64;36.77
45327;BME280;31062;49.678;24.560;2023-03-14T13:02:46;96645.34;;;15.72;36.99
45327;BME280;31062;49.678;24.560;2023-03-14T13:05:33;96786.06;;;16.68;37.24
45327;BME280;31062;49.678;24.560;2023-03-14T13:11:24;96736.47;;;16.49;36.79
45327;BME280;31062;49.678;24.560;2023-03-14T13:14:11;96787.97;;;16.85;36.05
45327;BME280;31062;49.678;24.560;2023-03-14T13:17:00;96751.78;;;16.67;35.43
45327;BME280;31062;49.678;24.560;2023-03-14T13:20:24;96738.31;;;16.62;36.08
45327;BME280;31062;49.678;24.560;2023-03-14T13:23:38;96786.25;;;16.98;35.16
45327;BME280;31062;49.678;24.560;2023-03-14T13:26:32;96781.31;;;16.96;35.15
45327;BME280;31062;49.678;24.560;2023-03-14T13:29:22;96777.97;;;17.02;35.22
45327;BME280;31062;49.678;24.560;2023-03-14T13:32:26;96770.75;;;16.95;34.21
45327;BME280;31062;49.678;24.560;2023-03-14T13:35:28;96809.06;;;17.12;34.60
45327;BME280;31062;49.678;24.560;2023-03-14T13:38:18;96817.63;;;17.18;35.53
45327;BME280;31062;49.678;24.560;2023-03-14T13:41:07;96785.56;;;17.23;34.40
45327;BME280;31062;49.678;24.560;2023-03-14T13:44:01;96789.88;;;17.26;34.42
45327;BME280;31062;49.678;24.560;2023-03-14T13:46:48;96742.34;;;17.04;34.43
45327;BME280;31062;49.678;24.560;2023-03-14T13:49:35;96633.91;;;16.31;34.05
45327;BME280;31062;49.678;24.560;2023-03-14T13:52:23;96784.38;;;17.30;34.13
45327;BME280;31062;49.678;24.560;2023-03-14T13:55:18;96746.53;;;17.03;34.20
45327;BME280;31062;49.678;24.560;2023-03-14T13:58:04;96719.84;;;17.00;33.54
45327;BME280;31062;49.678;24.560;2023-03-14T14:00:57;96764.06;;;17.30;34.17
45327;BME280;31062;49.678;24.560;2023-03-14T14:03:45;96753.28;;;17.20;34.38
45327;BME280;31062;49.678;24.560;2023-03-14T14:06:38;96671.94;;;16.64;34.81
45327;BME280;31062;49.678;24.560;2023-03-14T14:09:52;96761.97;;;17.30;34.34
45327;BME280;31062;49.678;24.560;2023-03-14T14:15:43;96753.47;;;17.26;34.72
45327;BME280;31062;49.678;24.560;2023-03-14T14:18:32;96735.06;;;17.19;34.75
45327;BME280;31062;49.678;24.560;2023-03-14T14:21:19;96720.66;;;17.05;34.56
45327;BME280;31062;49.678;24.560;2023-03-14T14:24:05;96683.53;;;16.79;34.89
45327;BME280;31062;49.678;24.560;2023-03-14T14:26:54;96612.16;;;16.30;35.62
45327;BME280;31062;49.678;24.560;2023-03-14T14:29:44;96737.22;;;17.21;35.46
45327;BME280;31062;49.678;24.560;2023-03-14T14:32:41;96735.00;;;17.17;35.13
45327;BME280;31062;49.678;24.560;2023-03-14T14:35:32;96732.16;;;17.15;34.91
45327;BME280;31062;49.678;24.560;2023-03-14T14:38:18;96551.31;;;15.81;34.33
45327;BME280;31062;49.678;24.560;2023-03-14T14:41:05;96602.09;;;16.21;35.25
45327;BME280;31062;49.678;24.560;2023-03-14T14:43:51;96561.22;;;16.08;35.21
45327;BME280;31062;49.678;24.560;2023-03-14T14:46:37;96566.72;;;16.06;35.34
45327;BME280;31062;49.678;24.560;2023-03-14T14:49:29;96721.91;;;17.00;34.83
45327;BME280;31062;49.678;24.560;2023-03-14T14:52:18;96563.69;;;15.98;35.00
45327;BME280;31062;49.678;24.560;2023-03-14T14:55:32;96687.97;;;16.88;34.92
45327;BME280;31062;49.678;24.560;2023-03-14T14:58:23;96689.25;;;16.83;35.27
45327;BME280;31062;49.678;24.560;2023-03-14T15:01:17;96703.47;;;16.91;35.54
45327;BME280;31062;49.678;24.560;2023-03-14T15:04:10;96689.25;;;16.83;35.05
45327;BME280;31062;49.678;24.560;2023-03-14T15:06:57;96627.59;;;16.31;35.48
45327;BME280;31062;49.678;24.560;2023-03-14T15:09:43;96571.78;;;15.87;35.27
45327;BME280;31062;49.678;24.560;2023-03-14T15:12:28;96680.94;;;16.61;35.50
45327;BME280;31062;49.678;24.560;2023-03-14T15:15:15;96695.75;;;16.65;35.22
45327;BME280;31062;49.678;24.560;2023-03-14T15:18:01;96572.31;;;15.82;35.54
45327;BME280;31062;49.678;24.560;2023-03-14T15:20:46;96715.50;;;16.71;35.81
45327;BME280;31062;49.678;24.560;2023-03-14T15:23:32;96704.31;;;16.71;35.65
45327;BME280;31062;49.678;24.560;2023-03-14T15:26:20;96674.22;;;16.48;35.67
45327;BME280;31062;49.678;24.560;2023-03-14T15:29:06;96691.00;;;16.48;36.15
45327;BME280;31062;49.678;24.560;2023-03-14T15:31:53;96687.78;;;16.34;36.39
45327;BME280;31062;49.678;24.560;2023-03-14T15:34:38;96719.38;;;16.60;36.33
45327;BME280;31062;49.678;24.560;2023-03-14T15:37:25;96570.72;;;15.53;36.20
45327;BME280;31062;49.678;24.560;2023-03-14T15:40:12;96720.47;;;16.51;36.08
45327;BME280;31062;49.678;24.560;2023-03-14T15:42:59;96634.56;;;15.84;36.12
45327;BME280;31062;49.678;24.560;2023-03-14T15:45:44;96589.44;;;15.50;35.96
45327;BME280;31062;49.678;24.560;2023-03-14T15:48:30;96717.91;;;16.36;35.71
45327;BME280;31062;49.678;24.560;2023-03-14T15:51:16;96582.56;;;15.32;35.67
45327;BME280;31062;49.678;24.560;2023-03-14T15:54:02;96714.06;;;16.25;36.44